Time;durP1;ratioP1;P1;durP2;ratioP2;P2;SDS_P1;SDS_P2;PMS_P1;PMS_P2;Temp;Humidity;BMP_temperature;BMP_pressure;BME280_temperature;BME280_humidity;BME280_pressure;Samples;Min_cycle;Max_cycle;Signal;HPM_P1;HPM_P2
2021/06/13 00:00:14;;;;;;;15.27;8.80;;;12.70;99.90;;;;;;2095766;28;20028;-66
2021/06/13 00:01:15;;;;;;;16.52;8.55;;;12.70;99.90;;;;;;2104507;28;20013;-63
2021/06/13 00:02:16;;;;;;;18.48;9.43;;;12.60;99.90;;;;;;2102266;28;20020;-63
2021/06/13 00:03:16;;;;;;;22.40;10.50;;;12.60;99.90;;;;;;2095337;28;20048;-63
2021/06/13 00:04:17;;;;;;;13.35;7.85;;;12.60;99.90;;;;;;2088466;28;20099;-63
2021/06/13 00:05:18;;;;;;;16.50;8.73;;;12.60;99.90;;;;;;2095798;28;20063;-65
2021/06/13 00:06:19;;;;;;;18.42;8.88;;;12.60;99.90;;;;;;2104052;28;20012;-63
2021/06/13 00:07:20;;;;;;;15.50;9.15;;;12.60;99.90;;;;;;2095288;28;20029;-63
2021/06/13 00:08:20;;;;;;;14.52;8.73;;;12.50;99.90;;;;;;2095354;28;20100;-63
2021/06/13 00:09:21;;;;;;;18.80;9.25;;;12.50;99.90;;;;;;2093603;28;20021;-63
2021/06/13 00:10:22;;;;;;;16.13;8.88;;;12.50;99.90;;;;;;2094911;28;20492;-63
2021/06/13 00:11:23;;;;;;;17.67;9.68;;;12.50;99.90;;;;;;2087945;28;20009;-63
2021/06/13 00:12:24;;;;;;;18.30;9.32;;;12.50;99.90;;;;;;2100569;28;20035;-63
2021/06/13 00:13:26;;;;;;;19.05;9.30;;;12.50;99.90;;;;;;2094696;28;20096;-62
2021/06/13 00:14:26;;;;;;;22.08;9.30;;;12.40;99.90;;;;;;2086685;28;20078;-63
2021/06/13 00:15:27;;;;;;;15.80;8.98;;;12.40;99.90;;;;;;2089347;28;20408;-63
2021/06/13 00:16:28;;;;;;;18.70;9.20;;;12.40;99.90;;;;;;2089350;28;20021;-63
2021/06/13 00:17:29;;;;;;;18.02;9.43;;;12.40;99.90;;;;;;2089241;28;20566;-63
2021/06/13 00:18:30;;;;;;;15.98;9.02;;;12.40;99.90;;;;;;2087503;28;20025;-63
2021/06/13 00:19:31;;;;;;;22.58;9.93;;;12.30;99.90;;;;;;2090023;28;20052;-63
2021/06/13 00:20:32;;;;;;;17.33;9.55;;;12.30;99.90;;;;;;2089750;28;20636;-63
2021/06/13 00:21:33;;;;;;;19.90;10.07;;;12.30;99.90;;;;;;2090074;28;20021;-63
2021/06/13 00:22:33;;;;;;;17.52;9.75;;;12.30;99.90;;;;;;2085587;28;20119;-63
2021/06/13 00:23:34;;;;;;;20.35;9.15;;;12.30;99.90;;;;;;2089682;28;20018;-63
2021/06/13 00:24:35;;;;;;;19.70;9.68;;;12.20;99.90;;;;;;2090316;28;20043;-64
2021/06/13 00:25:36;;;;;;;17.52;8.95;;;12.20;99.90;;;;;;2092811;28;20017;-63
2021/06/13 00:26:37;;;;;;;17.33;8.60;;;12.20;99.90;;;;;;2081190;28;20115;-63
2021/06/13 00:27:38;;;;;;;18.10;9.23;;;12.10;99.90;;;;;;2084544;28;20033;-63
2021/06/13 00:28:39;;;;;;;22.42;8.95;;;12.10;99.90;;;;;;2089654;28;20744;-63
2021/06/13 00:29:40;;;;;;;14.40;8.98;;;12.10;99.90;;;;;;2083007;28;20108;-63
2021/06/13 00:30:41;;;;;;;15.85;8.88;;;12.00;99.90;;;;;;2081428;28;20025;-63
2021/06/13 00:31:41;;;;;;;18.30;9.15;;;12.00;99.90;;;;;;2081631;28;20029;-63
2021/06/13 00:32:42;;;;;;;18.95;9.35;;;12.00;99.90;;;;;;2083941;28;20025;-63
2021/06/13 00:33:43;;;;;;;19.02;9.48;;;11.90;99.90;;;;;;2097356;28;20107;-63
2021/06/13 00:34:44;;;;;;;20.55;8.88;;;12.00;99.90;;;;;;2091559;28;20029;-63
2021/06/13 00:35:44;;;;;;;16.75;9.00;;;12.00;99.90;;;;;;2086088;28;20032;-63
2021/06/13 00:36:45;;;;;;;16.77;8.48;;;11.90;99.90;;;;;;2089179;28;20047;-63
2021/06/13 00:37:46;;;;;;;18.48;9.35;;;12.00;99.90;;;;;;2091857;28;20066;-63
2021/06/13 00:38:47;;;;;;;15.98;9.30;;;11.90;99.90;;;;;;2089828;28;20512;-63
2021/06/13 00:39:48;;;;;;;17.20;8.25;;;12.00;99.90;;;;;;2089703;28;20443;-63
2021/06/13 00:40:49;;;;;;;22.98;9.57;;;12.00;99.90;;;;;;2086687;28;20029;-63
2021/06/13 00:41:50;;;;;;;21.00;9.60;;;11.90;99.90;;;;;;2076037;28;20105;-63
2021/06/13 00:42:51;;;;;;;13.70;8.70;;;12.00;99.90;;;;;;2084517;28;20049;-63
2021/06/13 00:43:52;;;;;;;17.95;9.02;;;11.90;99.90;;;;;;2097564;28;20578;-63
2021/06/13 00:44:53;;;;;;;19.33;9.23;;;11.90;99.90;;;;;;2097330;28;20075;-63
2021/06/13 00:45:53;;;;;;;16.55;9.73;;;11.90;99.90;;;;;;2089892;28;20025;-63
2021/06/13 00:46:54;;;;;;;15.77;8.82;;;11.90;99.90;;;;;;2089331;28;20032;-63
2021/06/13 00:47:55;;;;;;;19.52;9.90;;;11.90;99.90;;;;;;2086676;28;20060;-63
2021/06/13 00:48:56;;;;;;;20.20;10.07;;;12.00;99.90;;;;;;2096679;28;20065;-63
2021/06/13 00:49:56;;;;;;;18.77;8.73;;;12.00;99.90;;;;;;2092510;28;20088;-64
2021/06/13 00:50:58;;;;;;;18.02;8.80;;;12.00;99.90;;;;;;2081398;28;20499;-63
2021/06/13 00:51:59;;;;;;;18.85;9.48;;;12.00;99.90;;;;;;2089099;28;20055;-64
2021/06/13 00:53:04;;;;;;;16.70;8.43;;;12.00;99.90;;;;;;2089639;28;20507;-63
2021/06/13 00:54:04;;;;;;;16.15;8.60;;;11.90;99.90;;;;;;2090611;28;20017;-64
2021/06/13 00:55:05;;;;;;;18.48;8.60;;;11.90;99.90;;;;;;2094018;28;20025;-64
2021/06/13 00:56:07;;;;;;;15.70;8.70;;;12.00;99.90;;;;;;2082708;28;20055;-63
2021/06/13 00:57:07;;;;;;;17.55;8.55;;;12.00;99.90;;;;;;2087729;28;20031;-63
2021/06/13 00:58:09;;;;;;;18.15;8.52;;;11.90;99.90;;;;;;2093804;28;20036;-64
2021/06/13 00:59:11;;;;;;;17.85;9.45;;;12.00;99.90;;;;;;2105485;28;20059;-62
2021/06/13 01:00:12;;;;;;;12.75;7.72;;;12.00;99.90;;;;;;2091640;28;20036;-63
2021/06/13 01:01:13;;;;;;;16.30;8.25;;;12.00;99.90;;;;;;2083876;28;20623;-64
2021/06/13 01:02:13;;;;;;;11.85;7.38;;;12.00;99.90;;;;;;2084482;28;20025;-63
2021/06/13 01:03:15;;;;;;;15.50;8.63;;;11.90;99.90;;;;;;2084494;28;20064;-63
2021/06/13 01:04:16;;;;;;;17.52;7.90;;;11.90;99.90;;;;;;2089031;28;20013;-63
2021/06/13 01:05:17;;;;;;;16.02;8.32;;;11.90;99.90;;;;;;2094226;28;20531;-63
2021/06/13 01:06:28;;;;;;;21.33;8.82;;;12.00;99.90;;;;;;2097493;28;20130;-63
2021/06/13 01:07:49;;;;;;;14.80;7.82;;;12.00;99.90;;;;;;2097436;28;20089;-64
2021/06/13 01:08:56;;;;;;;15.05;8.00;;;12.00;99.90;;;;;;2081313;28;20041;-64
2021/06/13 01:10:01;;;;;;;17.63;8.35;;;12.00;99.90;;;;;;2082995;28;20439;-64
2021/06/13 01:11:11;;;;;;;14.10;7.95;;;12.10;99.90;;;;;;2081413;28;20401;-65
2021/06/13 01:12:20;;;;;;;14.63;7.95;;;12.10;99.90;;;;;;2088722;28;20033;-65
2021/06/13 01:13:39;;;;;;;17.38;8.10;;;12.20;99.90;;;;;;2089497;28;20107;-65
2021/06/13 01:15:09;;;;;;;13.60;7.75;;;12.20;99.90;;;;;;2081141;28;20524;-64
2021/06/13 01:16:38;;;;;;;14.60;7.72;;;12.20;99.90;;;;;;2081523;28;20024;-64
2021/06/13 01:17:54;;;;;;;14.88;8.07;;;12.20;99.90;;;;;;2084229;28;20413;-65
2021/06/13 01:19:20;;;;;;;14.77;7.13;;;12.20;99.90;;;;;;2085982;28;20013;-64
2021/06/13 01:20:31;;;;;;;13.18;6.80;;;12.20;99.90;;;;;;2089485;28;20021;-64
2021/06/13 01:21:40;;;;;;;15.20;8.30;;;12.20;99.90;;;;;;2089557;28;20055;-64
2021/06/13 01:23:02;;;;;;;18.95;8.00;;;12.20;99.90;;;;;;2089709;28;20025;-64
2021/06/13 01:24:06;;;;;;;19.65;6.90;;;12.20;99.90;;;;;;2089205;28;20024;-65
2021/06/13 01:25:14;;;;;;;15.10;7.65;;;12.20;99.90;;;;;;2090946;28;20108;-65
2021/06/13 01:26:45;;;;;;;15.55;7.20;;;12.20;99.90;;;;;;2081003;28;20043;-65
2021/06/13 01:28:36;;;;;;;17.17;7.47;;;12.10;99.90;;;;;;2085308;28;20092;-65
2021/06/13 01:29:44;;;;;;;12.55;6.60;;;12.10;99.90;;;;;;2086815;28;20020;-65
2021/06/13 01:30:47;;;;;;;15.40;7.10;;;12.10;99.90;;;;;;2089179;28;20032;-65
2021/06/13 01:31:55;;;;;;;16.20;7.07;;;12.00;99.90;;;;;;2088521;28;20441;-65
2021/06/13 01:32:58;;;;;;;14.25;6.50;;;12.00;99.90;;;;;;2093626;28;20767;-65
2021/06/13 01:34:02;;;;;;;16.13;6.85;;;12.00;99.90;;;;;;2096622;28;20036;-65
2021/06/13 01:35:14;;;;;;;15.90;7.03;;;12.00;99.90;;;;;;2089458;28;20025;-65
2021/06/13 01:36:16;;;;;;;12.13;6.50;;;11.90;99.90;;;;;;2089348;28;20690;-65
2021/06/13 01:37:22;;;;;;;15.50;7.25;;;12.00;99.90;;;;;;2080959;28;20040;-65
2021/06/13 01:38:23;;;;;;;12.40;6.47;;;12.00;99.90;;;;;;2087056;28;20405;-65
2021/06/13 01:39:27;;;;;;;14.75;6.97;;;11.90;99.90;;;;;;2084903;28;20064;-65
2021/06/13 01:40:31;;;;;;;14.63;6.90;;;12.00;99.90;;;;;;2090749;28;20041;-65
2021/06/13 01:41:34;;;;;;;12.93;7.38;;;12.00;99.90;;;;;;2080603;28;20021;-65
2021/06/13 01:42:39;;;;;;;15.70;7.30;;;12.00;99.90;;;;;;2081504;28;20133;-66
2021/06/13 01:43:41;;;;;;;13.60;7.80;;;12.00;99.90;;;;;;2090222;28;20048;-66
2021/06/13 01:44:43;;;;;;;15.00;7.00;;;11.90;99.90;;;;;;2089057;28;20100;-65
2021/06/13 01:45:45;;;;;;;11.55;6.85;;;12.00;99.90;;;;;;2089389;28;20029;-65
2021/06/13 01:46:48;;;;;;;;;;;11.90;99.90;;;;;;2088982;28;20560;-65
2021/06/13 01:47:51;;;;;;;17.00;7.45;;;11.90;99.90;;;;;;2088622;28;19905;-65
2021/06/13 01:48:53;;;;;;;15.23;6.72;;;11.90;99.90;;;;;;2089277;28;20025;-65
2021/06/13 01:49:55;;;;;;;14.23;6.45;;;11.90;99.90;;;;;;2081316;28;20021;-65
2021/06/13 01:51:00;;;;;;;12.80;7.07;;;11.80;99.90;;;;;;2094764;28;20032;-65
2021/06/13 01:52:01;;;;;;;13.50;6.72;;;11.80;99.90;;;;;;2088415;28;20032;-65
2021/06/13 01:53:10;;;;;;;17.08;7.22;;;11.80;99.90;;;;;;2077489;28;20040;-65
2021/06/13 01:54:12;;;;;;;13.32;6.38;;;11.80;99.90;;;;;;2080308;28;20743;-65
2021/06/13 01:55:13;;;;;;;12.05;6.80;;;11.80;99.90;;;;;;2087069;28;20021;-65
2021/06/13 01:56:15;;;;;;;15.20;6.80;;;11.70;99.90;;;;;;2083038;28;20033;-65
2021/06/13 01:57:16;;;;;;;;;;;11.70;99.90;;;;;;2083895;28;20262;-66
2021/06/13 01:58:19;;;;;;;12.07;6.80;;;11.70;99.90;;;;;;2080568;28;19964;-65
2021/06/13 01:59:21;;;;;;;13.27;7.03;;;11.70;99.90;;;;;;2080847;28;20105;-65
2021/06/13 02:00:22;;;;;;;12.18;6.78;;;11.60;99.90;;;;;;2094556;28;20504;-65
2021/06/13 02:01:26;;;;;;;15.15;6.63;;;11.60;99.90;;;;;;2094875;28;20519;-65
2021/06/13 02:02:28;;;;;;;13.77;6.85;;;11.60;99.90;;;;;;2080939;28;20022;-65
2021/06/13 02:03:29;;;;;;;17.05;7.03;;;11.60;99.90;;;;;;2083475;28;20412;-65
2021/06/13 02:04:32;;;;;;;12.40;6.60;;;11.60;99.90;;;;;;2080620;28;20025;-65
2021/06/13 02:05:35;;;;;;;13.15;6.70;;;11.50;99.90;;;;;;2095487;28;20025;-65
2021/06/13 02:06:38;;;;;;;11.15;6.45;;;11.50;99.90;;;;;;2090083;28;20045;-64
2021/06/13 02:07:40;;;;;;;11.45;6.60;;;11.50;99.90;;;;;;2088348;28;20017;-64
2021/06/13 02:08:44;;;;;;;17.00;7.38;;;11.50;99.90;;;;;;2086064;28;20021;-64
2021/06/13 02:09:46;;;;;;;18.45;7.38;;;11.40;99.90;;;;;;2087774;28;20032;-64
2021/06/13 02:10:49;;;;;;;15.00;6.13;;;11.40;99.90;;;;;;2085434;28;20025;-65
2021/06/13 02:11:50;;;;;;;13.38;6.68;;;11.40;99.90;;;;;;2074915;28;20056;-65
2021/06/13 02:12:52;;;;;;;13.15;6.70;;;11.40;99.90;;;;;;2079857;28;20021;-65
2021/06/13 02:13:55;;;;;;;14.63;6.72;;;11.40;99.90;;;;;;2087551;28;20605;-65
2021/06/13 02:14:57;;;;;;;12.13;6.47;;;11.40;99.90;;;;;;2088092;28;20108;-65
2021/06/13 02:15:59;;;;;;;11.05;6.90;;;11.40;99.90;;;;;;2086207;28;20029;-65
2021/06/13 02:17:02;;;;;;;12.75;6.95;;;11.30;99.90;;;;;;2087879;28;20024;-65
2021/06/13 02:18:05;;;;;;;13.70;6.25;;;11.30;99.90;;;;;;2081951;28;20040;-65
2021/06/13 02:19:08;;;;;;;12.07;6.15;;;11.30;99.90;;;;;;2088881;28;20082;-65
2021/06/13 02:20:11;;;;;;;10.90;5.78;;;11.30;99.90;;;;;;2089108;28;20099;-65
2021/06/13 02:21:13;;;;;;;12.70;6.57;;;11.30;99.90;;;;;;2080401;28;20017;-65
2021/06/13 02:22:18;;;;;;;11.43;6.35;;;11.30;99.90;;;;;;2085015;28;20021;-65
2021/06/13 02:23:19;;;;;;;12.93;6.80;;;11.30;99.90;;;;;;2087960;28;20029;-65
2021/06/13 02:24:20;;;;;;;16.15;6.85;;;11.20;99.90;;;;;;2088348;28;20041;-65
2021/06/13 02:25:22;;;;;;;8.93;5.88;;;11.20;99.90;;;;;;2087712;28;20550;-65
2021/06/13 02:26:24;;;;;;;12.32;6.68;;;11.20;99.90;;;;;;2088341;28;20066;-65
2021/06/13 02:27:27;;;;;;;;;;;11.20;99.90;;;;;;2088905;28;20025;-65
2021/06/13 02:28:29;;;;;;;16.25;6.97;;;11.20;99.90;;;;;;2087275;28;20004;-65
2021/06/13 02:29:31;;;;;;;15.25;6.80;;;11.20;99.90;;;;;;2083976;28;20021;-65
2021/06/13 02:30:36;;;;;;;12.38;5.95;;;11.10;99.90;;;;;;2080825;28;20060;-65
2021/06/13 02:31:42;;;;;;;11.88;6.93;;;11.10;99.90;;;;;;2089027;28;20029;-65
2021/06/13 02:32:43;;;;;;;14.30;7.10;;;11.20;99.90;;;;;;2089650;28;20066;-66
2021/06/13 02:33:46;;;;;;;16.00;7.55;;;11.20;99.90;;;;;;2089866;28;20025;-68
2021/06/13 02:34:48;;;;;;;14.52;6.47;;;11.20;99.90;;;;;;2088682;28;20378;-65
2021/06/13 02:35:52;;;;;;;;;;;11.20;99.90;;;;;;2089295;28;20108;-65
2021/06/13 02:36:55;;;;;;;11.65;6.13;;;11.20;99.90;;;;;;2096342;28;19908;-65
2021/06/13 02:37:57;;;;;;;12.30;6.50;;;11.20;99.90;;;;;;2085675;28;20025;-65
2021/06/13 02:38:59;;;;;;;13.10;6.32;;;11.20;99.90;;;;;;2080281;28;20108;-65
2021/06/13 02:40:00;;;;;;;12.18;6.97;;;11.20;99.90;;;;;;2090309;28;20029;-65
2021/06/13 02:41:01;;;;;;;10.90;6.32;;;11.20;99.90;;;;;;2089437;28;20078;-65
2021/06/13 02:42:03;;;;;;;13.20;6.57;;;11.20;99.90;;;;;;2080515;28;20053;-65
2021/06/13 02:43:03;;;;;;;15.32;7.65;;;11.20;99.90;;;;;;2081644;28;20140;-68
2021/06/13 02:44:04;;;;;;;12.27;6.00;;;11.10;99.90;;;;;;2079791;28;20071;-65
2021/06/13 02:45:10;;;;;;;11.98;6.43;;;11.10;99.90;;;;;;2080051;28;20539;-65
2021/06/13 02:46:11;;;;;;;16.30;6.90;;;11.10;99.90;;;;;;2081957;28;20445;-65
2021/06/13 02:47:13;;;;;;;14.63;7.07;;;11.10;99.90;;;;;;2088840;28;20028;-66
2021/06/13 02:48:14;;;;;;;14.02;6.88;;;11.10;99.90;;;;;;2083282;28;20025;-66
2021/06/13 02:49:15;;;;;;;14.95;7.30;;;11.10;99.90;;;;;;2080634;28;20148;-65
2021/06/13 02:50:18;;;;;;;11.80;6.28;;;11.20;99.90;;;;;;2082915;28;20120;-65
2021/06/13 02:51:23;;;;;;;15.30;7.03;;;11.20;99.90;;;;;;2087991;28;20455;-65
2021/06/13 02:52:32;;;;;;;10.88;6.72;;;11.20;99.90;;;;;;2084282;28;20139;-66
2021/06/13 02:53:45;;;;;;;13.15;7.00;;;11.30;99.90;;;;;;2086911;28;20025;-65
2021/06/13 02:54:46;;;;;;;;;;;11.30;99.90;;;;;;2089145;28;20029;-65
2021/06/13 02:55:58;;;;;;;16.02;7.03;;;11.30;99.90;;;;;;2088789;28;20018;-65
2021/06/13 02:57:00;;;;;;;12.88;6.90;;;11.30;99.90;;;;;;2088204;28;20082;-65
2021/06/13 02:58:11;;;;;;;10.73;6.80;;;11.30;99.90;;;;;;2087906;28;20020;-66
2021/06/13 02:59:31;;;;;;;11.20;5.88;;;11.30;99.90;;;;;;2080330;28;20052;-66
2021/06/13 03:00:32;;;;;;;12.65;6.75;;;11.30;99.90;;;;;;2084722;28;20033;-65
2021/06/13 03:01:33;;;;;;;16.53;6.57;;;11.30;99.90;;;;;;2082793;28;20038;-66
2021/06/13 03:02:39;;;;;;;14.02;6.72;;;11.30;99.90;;;;;;2088839;28;20263;-66
2021/06/13 03:03:42;;;;;;;14.25;6.72;;;11.30;99.90;;;;;;2088653;28;20400;-66
2021/06/13 03:04:45;;;;;;;12.43;6.68;;;11.30;99.90;;;;;;2087690;28;20021;-66
2021/06/13 03:05:46;;;;;;;16.98;6.93;;;11.30;99.90;;;;;;2084477;28;20614;-66
2021/06/13 03:06:52;;;;;;;13.23;8.05;;;11.30;99.90;;;;;;2081481;28;20131;-66
2021/06/13 03:07:54;;;;;;;14.70;7.47;;;11.30;99.90;;;;;;2088069;28;20102;-66
2021/06/13 03:08:55;;;;;;;10.35;7.18;;;11.30;99.90;;;;;;2087928;28;20052;-66
2021/06/13 03:09:57;;;;;;;16.27;8.60;;;11.30;99.90;;;;;;2079211;28;20029;-66
2021/06/13 03:10:58;;;;;;;15.25;7.95;;;11.30;99.90;;;;;;2079794;28;20740;-66
2021/06/13 03:11:59;;;;;;;13.18;7.70;;;11.30;99.90;;;;;;2087933;28;20036;-66
2021/06/13 03:13:02;;;;;;;14.90;7.32;;;11.30;99.90;;;;;;2081700;28;20017;-66
2021/06/13 03:14:06;;;;;;;11.80;7.07;;;11.20;99.90;;;;;;2081575;28;20024;-66
2021/06/13 03:15:07;;;;;;;13.60;7.82;;;11.20;99.90;;;;;;2081998;28;20481;-66
2021/06/13 03:16:09;;;;;;;14.15;7.25;;;11.30;99.90;;;;;;2088921;28;20029;-66
2021/06/13 03:17:11;;;;;;;14.20;7.20;;;11.20;99.90;;;;;;2088725;28;20024;-66
2021/06/13 03:18:12;;;;;;;13.80;7.32;;;11.20;99.90;;;;;;2088927;28;20117;-66
2021/06/13 03:19:15;;;;;;;13.88;7.75;;;11.30;99.90;;;;;;2088152;28;20013;-67
2021/06/13 03:20:16;;;;;;;14.57;7.47;;;11.30;99.90;;;;;;2085941;28;20504;-66
2021/06/13 03:21:18;;;;;;;11.30;6.85;;;11.20;99.90;;;;;;2088170;28;20021;-67
2021/06/13 03:22:20;;;;;;;13.55;7.35;;;11.20;99.90;;;;;;2084057;28;20021;-67
2021/06/13 03:23:22;;;;;;;11.77;7.40;;;11.20;99.90;;;;;;2084917;28;20021;-67
2021/06/13 03:24:24;;;;;;;16.13;7.28;;;11.20;99.90;;;;;;2088851;28;20031;-67
2021/06/13 03:25:25;;;;;;;13.52;7.05;;;11.10;99.90;;;;;;2088613;28;20079;-70
2021/06/13 03:26:28;;;;;;;14.73;8.27;;;11.10;99.90;;;;;;2089006;28;20102;-67
2021/06/13 03:27:30;;;;;;;16.50;7.40;;;11.10;99.90;;;;;;2080844;28;20028;-67
2021/06/13 03:28:33;;;;;;;14.65;6.65;;;11.10;99.90;;;;;;2085924;28;20079;-66
2021/06/13 03:29:38;;;;;;;13.18;7.38;;;11.10;99.90;;;;;;2081019;28;20013;-67
2021/06/13 03:30:39;;;;;;;19.88;7.97;;;11.10;99.90;;;;;;2085407;28;20028;-67
2021/06/13 03:31:40;;;;;;;18.88;7.40;;;11.10;99.90;;;;;;2086407;28;20049;-66
2021/06/13 03:32:42;;;;;;;12.75;6.78;;;11.00;99.90;;;;;;2095905;28;20573;-66
2021/06/13 03:33:43;;;;;;;20.52;7.85;;;11.00;99.90;;;;;;2085912;28;20030;-66
2021/06/13 03:34:46;;;;;;;15.13;7.55;;;11.00;99.90;;;;;;2084193;28;20071;-66
2021/06/13 03:35:47;;;;;;;12.32;6.97;;;11.00;99.90;;;;;;2079708;28;20531;-66
2021/06/13 03:36:50;;;;;;;11.45;6.72;;;11.00;99.90;;;;;;2081192;28;20033;-66
2021/06/13 03:37:51;;;;;;;15.25;7.40;;;10.90;99.90;;;;;;2088349;28;20413;-67
2021/06/13 03:38:53;;;;;;;12.68;6.95;;;10.90;99.90;;;;;;2087956;28;20032;-68
2021/06/13 03:39:54;;;;;;;12.43;6.53;;;10.80;99.90;;;;;;2085657;28;20056;-66
2021/06/13 03:40:56;;;;;;;15.50;7.47;;;10.80;99.90;;;;;;2081226;28;20036;-66
2021/06/13 03:41:57;;;;;;;12.27;6.68;;;10.80;99.90;;;;;;2079980;28;20108;-66
2021/06/13 03:42:58;;;;;;;17.00;7.30;;;10.80;99.90;;;;;;2087960;28;20526;-67
2021/06/13 03:44:00;;;;;;;10.60;6.70;;;10.80;99.90;;;;;;2092794;28;20023;-66
2021/06/13 03:45:01;;;;;;;13.65;7.35;;;10.80;99.90;;;;;;2087941;28;20256;-66
2021/06/13 03:46:02;;;;;;;16.02;6.55;;;10.80;99.90;;;;;;2087533;28;20033;-67
2021/06/13 03:47:04;;;;;;;19.92;8.15;;;10.80;99.90;;;;;;2085037;28;20017;-67
2021/06/13 03:48:06;;;;;;;15.43;8.07;;;10.80;99.90;;;;;;2082082;28;20021;-67
2021/06/13 03:49:07;;;;;;;;;;;10.80;99.90;;;;;;2086219;28;20101;-66
2021/06/13 03:50:10;;;;;;;15.73;8.13;;;10.90;99.90;;;;;;2084963;28;19905;-67
2021/06/13 03:51:12;;;;;;;17.13;7.72;;;10.90;99.90;;;;;;2081452;28;20017;-66
2021/06/13 03:52:13;;;;;;;14.52;7.78;;;11.00;99.90;;;;;;2081076;28;20083;-66
2021/06/13 03:53:14;;;;;;;19.85;8.52;;;11.00;99.90;;;;;;2081804;28;20098;-67
2021/06/13 03:54:15;;;;;;;17.52;8.82;;;11.00;99.90;;;;;;2081944;28;20025;-67
2021/06/13 03:55:16;;;;;;;14.23;8.40;;;11.00;99.90;;;;;;2081709;28;20104;-66
2021/06/13 03:56:20;;;;;;;14.57;7.32;;;11.00;99.90;;;;;;2090151;28;20021;-67
2021/06/13 03:57:22;;;;;;;16.55;7.85;;;11.00;99.90;;;;;;2089315;28;20098;-67
2021/06/13 03:58:25;;;;;;;15.43;8.13;;;11.00;99.90;;;;;;2090161;28;20028;-67
2021/06/13 03:59:27;;;;;;;19.65;8.20;;;11.00;99.90;;;;;;2089552;28;20036;-67
2021/06/13 04:00:32;;;;;;;17.60;8.20;;;11.00;99.90;;;;;;2089062;28;20021;-66
2021/06/13 04:01:35;;;;;;;17.02;8.90;;;11.00;99.90;;;;;;2087151;28;20051;-66
2021/06/13 04:02:43;;;;;;;20.80;8.50;;;11.00;99.90;;;;;;2092881;28;20025;-66
2021/06/13 04:03:50;;;;;;;18.13;8.68;;;11.00;99.90;;;;;;2088540;28;20112;-67
2021/06/13 04:04:52;;;;;;;15.55;7.90;;;11.00;99.90;;;;;;2081150;28;20022;-67
2021/06/13 04:05:53;;;;;;;15.35;7.88;;;11.00;99.90;;;;;;2081515;28;20465;-67
2021/06/13 04:06:55;;;;;;;16.70;8.10;;;11.00;99.90;;;;;;2091912;28;20079;-67
2021/06/13 04:07:56;;;;;;;19.15;8.90;;;11.10;99.90;;;;;;2097333;28;20416;-67
2021/06/13 04:08:58;;;;;;;14.70;7.43;;;11.10;99.90;;;;;;2089712;28;20027;-67
2021/06/13 04:09:59;;;;;;;;;;;11.10;99.90;;;;;;2089994;28;20044;-67
2021/06/13 04:11:00;;;;;;;17.48;8.18;;;11.10;99.90;;;;;;2089292;28;20003;-67
2021/06/13 04:12:02;;;;;;;14.07;8.35;;;11.10;99.90;;;;;;2098814;28;20027;-68
2021/06/13 04:13:03;;;;;;;18.80;8.52;;;11.10;99.90;;;;;;2097077;28;20017;-67
2021/06/13 04:14:05;;;;;;;19.45;8.80;;;11.10;99.90;;;;;;2082343;28;20025;-67
2021/06/13 04:15:10;;;;;;;15.88;8.15;;;11.10;99.90;;;;;;2081823;28;20079;-67
2021/06/13 04:16:11;;;;;;;20.38;9.10;;;11.10;99.90;;;;;;2085895;28;20112;-67
2021/06/13 04:17:18;;;;;;;16.20;8.65;;;11.20;99.90;;;;;;2086432;28;23558;-67
2021/06/13 04:18:20;;;;;;;16.52;9.27;;;11.20;99.90;;;;;;2089246;28;20025;-67
2021/06/13 04:19:21;;;;;;;20.40;9.48;;;11.20;99.90;;;;;;2095421;28;20036;-67
2021/06/13 04:20:22;;;;;;;22.63;9.47;;;11.20;99.90;;;;;;2089155;28;20669;-67
2021/06/13 04:21:23;;;;;;;19.52;10.30;;;11.20;99.90;;;;;;2088803;28;20267;-67
2021/06/13 04:22:24;;;;;;;18.73;10.82;;;11.30;99.90;;;;;;2089438;28;20057;-67
2021/06/13 04:23:25;;;;;;;21.35;12.02;;;11.20;99.90;;;;;;2088539;28;20037;-67
2021/06/13 04:24:27;;;;;;;24.85;13.18;;;11.30;99.90;;;;;;2085196;28;20052;-67
2021/06/13 04:25:28;;;;;;;22.48;12.63;;;11.30;99.90;;;;;;2084818;28;20739;-67
2021/06/13 04:26:29;;;;;;;23.70;13.27;;;11.30;99.90;;;;;;2079135;28;20025;-67
2021/06/13 04:27:31;;;;;;;18.00;11.65;;;11.30;99.90;;;;;;2082902;28;20056;-67
2021/06/13 04:28:32;;;;;;;19.65;12.30;;;11.30;99.90;;;;;;2089595;28;20029;-67
2021/06/13 04:29:32;;;;;;;19.65;10.80;;;11.30;99.90;;;;;;2088594;28;20492;-67
2021/06/13 04:30:33;;;;;;;18.95;10.57;;;11.30;99.90;;;;;;2085513;28;20044;-67
2021/06/13 04:31:34;;;;;;;23.00;11.10;;;11.30;99.90;;;;;;2082286;28;20109;-67
2021/06/13 04:32:35;;;;;;;22.58;12.07;;;11.30;99.90;;;;;;2087319;28;20025;-68
2021/06/13 04:33:37;;;;;;;17.55;11.00;;;11.30;99.90;;;;;;2081227;28;20101;-68
2021/06/13 04:34:39;;;;;;;25.33;10.77;;;11.30;99.90;;;;;;2093695;28;20191;-67
2021/06/13 04:35:39;;;;;;;20.75;9.60;;;11.30;99.90;;;;;;2097114;28;20013;-67
2021/06/13 04:36:40;;;;;;;20.45;10.98;;;11.30;99.90;;;;;;2089433;28;20548;-67
2021/06/13 04:37:40;;;;;;;19.90;11.32;;;11.40;99.90;;;;;;2087659;28;20397;-67
2021/06/13 04:38:41;;;;;;;20.00;11.63;;;11.50;99.90;;;;;;2084954;28;20532;-68
2021/06/13 04:39:42;;;;;;;20.85;13.50;;;11.70;99.90;;;;;;2086243;28;20417;-67
2021/06/13 04:40:43;;;;;;;24.83;13.20;;;11.90;99.90;;;;;;2085140;28;20025;-67
2021/06/13 04:41:44;;;;;;;19.35;12.10;;;12.30;99.90;;;;;;2087813;28;20741;-67
2021/06/13 04:42:44;;;;;;;18.05;12.13;;;12.60;99.90;;;;;;2086251;28;20056;-68
2021/06/13 04:43:46;;;;;;;15.77;9.80;;;12.90;99.90;;;;;;2086112;28;20025;-68
2021/06/13 04:44:47;;;;;;;15.45;9.90;;;13.30;99.90;;;;;;2086480;28;20028;-68
2021/06/13 04:45:47;;;;;;;16.17;9.32;;;13.70;99.90;;;;;;2088826;28;20116;-67
2021/06/13 04:46:48;;;;;;;19.50;10.60;;;14.20;99.90;;;;;;2088341;28;20013;-68
2021/06/13 04:47:49;;;;;;;21.58;10.38;;;14.60;99.90;;;;;;2089427;28;20047;-70
2021/06/13 04:48:49;;;;;;;18.08;9.43;;;15.00;99.90;;;;;;2089632;28;20031;-69
2021/06/13 04:49:53;;;;;;;17.13;8.88;;;15.50;99.90;;;;;;2086495;28;20040;-68
2021/06/13 04:50:58;;;;;;;14.20;7.88;;;15.80;99.90;;;;;;2089247;28;20116;-68
2021/06/13 04:51:59;;;;;;;18.45;8.40;;;16.20;99.90;;;;;;2088099;28;20025;-68
2021/06/13 04:53:02;;;;;;;13.73;7.80;;;16.50;99.90;;;;;;2087874;28;20037;-68
2021/06/13 04:54:21;;;;;;;14.85;6.93;;;16.80;99.90;;;;;;2089126;28;20730;-68
2021/06/13 04:55:49;;;;;;;12.30;6.68;;;17.00;99.90;;;;;;2088876;28;20511;-67
2021/06/13 04:57:01;;;;;;;15.20;6.55;;;17.30;99.90;;;;;;2072291;28;20025;-67
2021/06/13 04:58:07;;;;;;;14.07;7.65;;;17.70;99.90;;;;;;2078002;28;20021;-68
2021/06/13 04:59:08;;;;;;;15.63;7.00;;;17.80;99.90;;;;;;2086796;28;20060;-67
2021/06/13 05:00:09;;;;;;;15.90;7.28;;;18.10;99.90;;;;;;2085423;28;20034;-69
2021/06/13 05:01:09;;;;;;;11.43;5.97;;;18.40;99.90;;;;;;2088119;28;20548;-67
2021/06/13 05:02:10;;;;;;;11.77;6.53;;;18.70;99.90;;;;;;2095397;28;20021;-67
2021/06/13 05:03:11;;;;;;;9.00;6.40;;;18.90;99.90;;;;;;2089851;28;20485;-69
2021/06/13 05:04:12;;;;;;;12.15;6.80;;;19.10;99.90;;;;;;2086680;28;20017;-66
2021/06/13 05:05:15;;;;;;;11.10;6.15;;;19.30;99.90;;;;;;2085607;28;20028;-66
2021/06/13 05:06:16;;;;;;;10.80;6.15;;;19.40;99.90;;;;;;2089543;28;20017;-66
2021/06/13 05:07:16;;;;;;;10.07;5.28;;;19.50;99.90;;;;;;2088823;28;20026;-67
2021/06/13 05:08:17;;;;;;;10.18;5.38;;;19.60;99.90;;;;;;2083054;28;20523;-67
2021/06/13 05:09:18;;;;;;;10.57;4.90;;;19.70;99.90;;;;;;2087713;28;20384;-67
2021/06/13 05:10:19;;;;;;;7.55;4.72;;;19.90;99.90;;;;;;2084870;28;20013;-67
2021/06/13 05:11:20;;;;;;;9.88;4.72;;;20.10;99.90;;;;;;2088666;28;20029;-67
2021/06/13 05:12:20;;;;;;;8.60;4.70;;;20.10;99.90;;;;;;2089099;28;20025;-66
2021/06/13 05:13:21;;;;;;;11.05;5.53;;;20.20;99.90;;;;;;2087029;28;20451;-66
2021/06/13 05:14:22;;;;;;;8.50;4.50;;;20.30;99.90;;;;;;2083938;28;20432;-66
2021/06/13 05:15:23;;;;;;;11.88;5.47;;;20.50;99.90;;;;;;2083936;28;20052;-67
2021/06/13 05:16:24;;;;;;;9.10;4.93;;;20.70;99.90;;;;;;2081228;28;20029;-66
2021/06/13 05:17:25;;;;;;;11.68;5.05;;;20.90;99.90;;;;;;2082148;28;20033;-66
2021/06/13 05:18:25;;;;;;;9.38;4.97;;;21.00;99.90;;;;;;2093169;28;20032;-66
2021/06/13 05:19:26;;;;;;;9.15;4.65;;;21.20;99.90;;;;;;2094508;28;20515;-66
2021/06/13 05:20:27;;;;;;;10.75;4.15;;;21.40;99.90;;;;;;2087527;28;20052;-66
2021/06/13 05:21:27;;;;;;;8.55;4.65;;;21.50;99.90;;;;;;2084781;28;20037;-66
2021/06/13 05:22:28;;;;;;;8.27;4.20;;;21.40;99.90;;;;;;2087765;28;20025;-66
2021/06/13 05:23:29;;;;;;;11.45;4.15;;;21.30;99.90;;;;;;2086467;28;20024;-66
2021/06/13 05:24:29;;;;;;;7.32;4.32;;;21.30;99.90;;;;;;2089069;28;20025;-66